• Join FlightAware (Why Join?)
  • Login
  • US Flag 
11:45PM EDT


 

Airport Tracker/Info


-or-


 

Live Flight TrackerFlight Track Log ✈ AAL1459 ✈ 14-May-2013 ✈ KBOS - KORD

Flight Track Log - Related Links

Times and Time Zones

All times are in EDT time to prevent confusion due to time zone crossing. See the AAL1459 flight status page for this flight to view local times or setup timezone preferences in your user account.

Time Position Orientation Groundspeed Altitude Reporting Facility
EDT Latitude Longitude Course Direction KTS MPH feet Rate Location/Type
02:12PM 42.3830 -70.9960 21° North 174 200 1,300  Level FlightAware
02:13PM 42.4040 -70.9850 21° North 191 220 2,100 1,620 Climbing FlightAware
02:13PM 42.4180 -70.9780 20° North 221 254 2,400 1,200 Climbing FlightAware
02:13PM 42.4310 -70.9680 30° Northeast 226 260 2,700 960 Climbing FlightAware
02:13PM 42.4390 -70.9570 45° Northeast 238 274 2,800 960 Climbing FlightAware
02:14PM 42.4460 -70.9360 66° East 248 285 3,100 1,200 Climbing FlightAware
02:14PM 42.4590 -70.8910 69° East 257 296 3,700 1,020 Climbing FlightAware
02:14PM 42.4730 -70.8780 34° Northeast 251 289 3,900 600 Climbing FlightAware
02:15PM 42.4900 -70.8740 10° North 245 282 4,000  Climbing FlightAware
02:15PM 42.5160 -70.8900 336° Northwest 242 278 3,900 120 Descending FlightAware
02:15PM 42.5270 -70.9080 310° West 237 273 4,100 1,860 Climbing FlightAware
02:16PM 42.5500 -70.9420 313° West 255 293 5,300 2,940 Climbing FlightAware
02:16PM 42.5720 -70.9710 316° Northwest 257 296 6,800 3,600 Climbing FlightAware
02:17PM 42.5950 -71.0050 313° West 240 276 8,600 3,300 Climbing FlightAware
02:17PM 42.6070 -71.0220 314° West 246 283 9,300 2,280 Climbing FlightAware
02:18PM 42.6410 -71.0710 313° West 269 310 10,700 1,800 Climbing FlightAware
02:18PM 42.6770 -71.1240 313° West 309 356 11,700 1,800 Climbing FlightAware
02:19PM 42.7240 -71.1940 312° West 342 394 13,300 2,280 Climbing FlightAware
02:20PM 42.7660 -71.2570 312° West 349 402 15,000 2,820 Climbing FlightAware
02:20PM 42.7870 -71.3210 294° West 359 413 16,600 2,880 Climbing FlightAware
02:21PM 42.7970 -71.4230 278° West 372 428 18,600 2,580 Climbing FlightAware
02:22PM 42.8040 -71.4990 277° West 372 428 20,100 2,700 Climbing FlightAware
02:22PM 42.8140 -71.6180 277° West 378 435 22,200 2,220 Climbing FlightAware
02:23PM 42.8240 -71.7140 278° West 384 442 23,300 1,860 Climbing FlightAware
02:24PM 42.8340 -71.8240 277° West 389 448 24,900 1,860 Climbing FlightAware
02:24PM 42.8430 -71.9230 277° West 397 457 26,000 1,620 Climbing FlightAware
02:25PM 42.8520 -72.0220 277° West 404 465 27,100 1,440 Climbing FlightAware
02:26PM 42.8630 -72.1330 278° West 413 475 28,100 1,260 Climbing FlightAware
02:27PM 42.8720 -72.2380 277° West 422 486 28,900 1,380 Climbing FlightAware
02:27PM 42.8830 -72.3600 277° West 426 490 30,100 1,620 Climbing FlightAware
02:28PM 42.8920 -72.4680 277° West 422 486 31,200 1,320 Climbing FlightAware
02:29PM 42.9030 -72.5840 277° West 432 497 32,000 1,200 Climbing FlightAware
02:29PM 42.9120 -72.6910 277° West 429 494 32,900 1,380 Climbing FlightAware
02:30PM 42.9210 -72.7990 277° West 425 489 33,900 1,380 Climbing FlightAware
02:31PM 42.9310 -72.9160 277° West 423 487 34,900 1,260 Climbing FlightAware
02:31PM 42.9400 -73.0240 277° West 421 484 35,700 600 Climbing FlightAware
02:32PM 42.9490 -73.1290 277° West 421 484 35,800 480 Climbing FlightAware
02:33PM 42.9570 -73.2330 276° West 421 484 36,500 420 Climbing FlightAware
02:34PM 42.9660 -73.3450 276° West 421 484 36,500 960 Level FlightAware
02:34PM 42.9770 -73.4750 277° West 425 489 37,900 960 Climbing FlightAware
02:35PM 42.9880 -73.6070 277° West 426 490 38,000 60 Climbing FlightAware
02:36PM 42.9980 -73.7180 277° West 426 490 38,000  Level FlightAware
02:37PM 43.0090 -73.8870 275° West 426 490 38,000  Level FlightAware
02:38PM 43.0170 -73.9930 276° West 425 489 38,000  Level FlightAware
02:38PM 43.0250 -74.0980 276° West 424 488 38,000  Level FlightAware
02:39PM 43.0340 -74.2220 276° West 424 488 38,000  Level FlightAware
02:40PM 43.0430 -74.3510 275° West 424 488 38,000  Level FlightAware
02:41PM 43.0480 -74.4420 274° West 424 488 38,000  Level FlightAware
02:41PM 43.0600 -74.5870 277° West 422 486 38,000  Level FlightAware
02:42PM 43.0680 -74.7060 275° West 426 490 38,000  Level FlightAware
02:43PM 43.0750 -74.8130 275° West 428 493 38,000  Level FlightAware
02:43PM 43.0830 -74.9220 276° West 428 493 38,000  Level FlightAware
02:44PM 43.0900 -75.0360 275° West 427 491 38,000  Level FlightAware
02:45PM 43.0960 -75.1210 276° West 424 488 38,000  Level FlightAware
02:45PM 43.1020 -75.2270 274° West 419 482 38,000  Level FlightAware
02:46PM 43.1090 -75.3320 275° West 420 483 38,000  Level FlightAware
02:47PM 43.1150 -75.4390 274° West 420 483 38,000  Level FlightAware
02:47PM 43.1230 -75.5550 275° West 421 484 38,000  Level FlightAware
02:48PM 43.1300 -75.6670 275° West 422 486 38,000  Level FlightAware
02:49PM 43.1360 -75.7830 274° West 421 484 38,000  Level FlightAware
02:49PM 43.1420 -75.8860 275° West 420 483 38,000  Level FlightAware
02:50PM 43.1490 -75.9960 275° West 419 482 38,000  Level FlightAware
02:51PM 43.1560 -76.1150 275° West 418 481 38,000  Level FlightAware
02:52PM 43.1600 -76.2170 273° West 418 481 38,000  Level FlightAware
02:52PM 43.1600 -76.3350 270° West 414 476 38,000  Level FlightAware
02:53PM 43.1600 -76.4240 270° West 406 467 38,000  Level FlightAware
02:54PM 43.1600 -76.5780 270° West 401 461 38,000  Level FlightAware
02:55PM 43.1600 -76.6950 270° West 397 457 38,000  Level FlightAware
02:55PM 43.1600 -76.7880 270° West 395 455 38,000  Level FlightAware
02:56PM 43.1590 -76.8940 269° West 391 450 38,000  Level FlightAware
02:57PM 43.1580 -77.0020 269° West 387 445 38,000  Level FlightAware
02:57PM 43.1580 -77.1010 270° West 384 442 38,000  Level FlightAware
02:58PM 43.1570 -77.2100 269° West 381 438 38,000  Level FlightAware
02:59PM 43.1560 -77.3020 269° West 381 438 38,000  Level FlightAware
03:00PM 43.1550 -77.4130 269° West 384 442 38,000  Level FlightAware
03:00PM 43.1540 -77.5120 269° West 385 443 38,000  Level FlightAware
03:01PM 43.1530 -77.6020 269° West 382 440 38,000  Level FlightAware
03:02PM 43.1520 -77.7170 269° West 380 437 38,000  Level FlightAware
03:02PM 43.1510 -77.8120 269° West 379 436 38,000  Level FlightAware
03:03PM 43.1490 -77.9070 268° West 377 434 38,000  Level FlightAware
03:04PM 43.1480 -78.0100 269° West 375 432 38,000  Level FlightAware
03:04PM 43.1460 -78.1080 268° West 374 430 38,000  Level FlightAware
03:05PM 43.1440 -78.2160 269° West 377 434 38,000  Level FlightAware
03:06PM 43.1430 -78.3100 269° West 376 433 38,000  Level FlightAware
03:07PM 43.1410 -78.4160 269° West 377 434 38,000  Level FlightAware
03:07PM 43.1380 -78.5110 268° West 378 435 38,000  Level FlightAware
03:08PM 43.1350 -78.6060 268° West 379 436 38,000  Level FlightAware
03:09PM 43.1320 -78.7180 268° West 382 440 38,000  Level FlightAware
03:09PM 43.1300 -78.8110 268° West 384 442 38,000  Level FlightAware
03:10PM 43.1270 -78.9120 268° West 386 444 38,000  Level FlightAware
03:11PM 43.1230 -79.0210 267° West 388 447 38,000  Level FlightAware
03:11PM 43.1210 -79.1120 268° West 390 449 38,000  Level FlightAware
03:12PM 43.1170 -79.2310 267° West 392 451 38,000  Level FlightAware
03:13PM 43.1130 -79.3300 267° West 393 452 38,000  Level FlightAware
03:14PM 43.1100 -79.4420 268° West 396 456 38,000  Level FlightAware
03:14PM 43.1060 -79.5400 267° West 397 457 38,000 -780 Level FlightAware
03:15PM 43.1030 -79.6390 268° West 400 460 37,000 -1,920 Descending FlightAware
03:16PM 43.0980 -79.7520 267° West 401 461 35,300 -2,280 Descending FlightAware
03:16PM 43.0950 -79.8420 267° West 391 450 34,000 -1,620 Descending FlightAware
03:17PM 43.0920 -79.9290 267° West 368 423 33,300 -1,200 Descending FlightAware
03:18PM 43.0880 -80.0410 267° West 366 421 32,300 -960 Descending FlightAware
03:18PM 43.0840 -80.1350 267° West 366 421 32,000 -240 Descending FlightAware
03:19PM 43.0800 -80.2260 267° West 374 430 32,000  Level FlightAware
03:20PM 43.0750 -80.3340 266° West 375 432 32,000  Level FlightAware
03:20PM 43.0710 -80.4270 267° West 376 433 32,000  Level FlightAware
03:21PM 43.0670 -80.5190 267° West 376 433 32,000  Level FlightAware
03:22PM 43.0620 -80.6330 267° West 376 433 32,000  Level FlightAware
03:22PM 43.0580 -80.7320 267° West 378 435 32,000  Level FlightAware
03:23PM 43.0530 -80.8360 266° West 379 436 32,000  Level FlightAware
03:24PM 43.0490 -80.9140 266° West 380 437 32,000  Level FlightAware
03:25PM 43.0440 -81.0240 266° West 382 440 32,000  Level FlightAware
03:25PM 43.0410 -81.0920 267° West 382 440 32,000  Level FlightAware
03:26PM 43.0370 -81.2160 268° West 381 438 32,000  Level FlightAware
03:27PM 43.0350 -81.3130 268° West 379 436 32,000  Level FlightAware
03:27PM 43.0330 -81.4230 269° West 375 432 32,000  Level FlightAware
03:28PM 43.0310 -81.5310 269° West 375 432 32,000  Level FlightAware
03:29PM 43.0300 -81.6200 269° West 377 434 32,000  Level FlightAware
03:29PM 43.0280 -81.7190 268° West 378 435 32,000  Level FlightAware
03:30PM 43.0260 -81.8100 268° West 378 435 32,000  Level FlightAware
03:31PM 43.0240 -81.8900 268° West 378 435 32,000  Level FlightAware
03:32PM 43.0200 -82.0400 268° West 351 404 32,000  Level FlightAware
03:32PM 43.0180 -82.1260 268° West 334 384 32,000  Level FlightAware
03:33PM 43.0160 -82.2080 268° West 334 384 32,000  Level FlightAware
03:34PM 43.0140 -82.2870 268° West 335 386 32,000  Level FlightAware
03:35PM 43.0110 -82.3950 268° West 336 387 32,000  Level FlightAware
03:35PM 43.0080 -82.5230 268° West 339 390 32,000  Level FlightAware
03:36PM 43.0050 -82.6270 268° West 341 392 32,000  Level FlightAware
03:37PM 43.0000 -82.7800 267° West 342 394 32,000  Level FlightAware
03:38PM 42.9980 -82.8570 268° West 341 392 32,000  Level FlightAware
03:39PM 42.9950 -82.9450 267° West 341 392 32,000  Level FlightAware
03:39PM 42.9920 -83.0300 267° West 342 394 32,000  Level FlightAware
03:40PM 42.9900 -83.1040 268° West 343 395 32,000  Level FlightAware
03:41PM 42.9860 -83.2150 267° West 345 397 32,000  Level FlightAware
03:41PM 42.9840 -83.2890 268° West 344 396 32,000  Level FlightAware
03:42PM 42.9800 -83.3990 267° West 345 397 32,000  Level FlightAware
03:43PM 42.9760 -83.5070 267° West 344 396 32,000  Level FlightAware
03:44PM 42.9720 -83.5990 267° West 344 396 32,000  Level FlightAware
03:45PM 42.9680 -83.7260 268° West 343 395 32,000  Level FlightAware
03:45PM 42.9610 -83.8050 263° West 348 400 32,000  Level FlightAware
03:46PM 42.9540 -83.8830 263° West 350 403 32,000  Level FlightAware
03:47PM 42.9440 -83.9880 263° West 375 432 32,000  Level FlightAware
03:47PM 42.9330 -84.0930 262° West 384 442 32,000  Level FlightAware
03:48PM 42.9230 -84.1930 262° West 386 444 32,000  Level FlightAware
03:49PM 42.9130 -84.3010 263° West 386 444 32,000  Level FlightAware
03:50PM 42.9030 -84.3940 262° West 386 444 32,000  Level FlightAware
03:50PM 42.8920 -84.5040 262° West 389 448 32,000  Level FlightAware
03:51PM 42.8840 -84.5820 262° West 390 449 32,000  Level FlightAware
03:51PM 42.8750 -84.6750 263° West 392 451 32,000  Level FlightAware
03:52PM 42.8630 -84.7870 262° West 376 433 32,000  Level FlightAware
03:53PM 42.8540 -84.8750 262° West 356 410 32,000  Level FlightAware
03:54PM 42.8440 -84.9640 261° West 355 409 32,000  Level FlightAware
03:54PM 42.8330 -85.0730 262° West 355 409 32,000 -240 Level FlightAware
03:55PM 42.8230 -85.1640 262° West 352 405 31,700 -720 Descending FlightAware
03:56PM 42.8130 -85.2560 262° West 349 402 31,000 -1,200 Descending FlightAware
03:56PM 42.8040 -85.3410 262° West 344 396 30,000 -1,500 Descending FlightAware
03:57PM 42.7950 -85.4260 262° West 335 386 29,000 -1,500 Descending FlightAware
03:58PM 42.7840 -85.5100 260° West 351 404 28,000 -1,560 Descending FlightAware
03:59PM 42.7650 -85.6190 257° West 381 438 26,800 -1,680 Descending FlightAware
03:59PM 42.7490 -85.7110 257° West 399 459 25,700 -1,680 Descending FlightAware
04:00PM 42.7280 -85.8220 256° West 399 459 24,500 -1,680 Descending FlightAware
04:01PM 42.7080 -85.9330 256° West 387 445 23,200 -1,680 Descending FlightAware
04:01PM 42.6910 -86.0270 256° West 384 442 22,200 -1,500 Descending FlightAware
04:02PM 42.6750 -86.1150 256° West 372 428 21,200 -1,500 Descending FlightAware
04:03PM 42.6560 -86.2150 256° West 365 420 20,100 -900 Descending FlightAware
04:03PM 42.6400 -86.3040 256° West 361 415 20,000 -780 Descending FlightAware
04:04PM 42.6220 -86.3980 255° West 364 419 19,000 -1,500 Descending FlightAware
04:05PM 42.6060 -86.4860 256° West 356 410 17,900 -1,800 Descending FlightAware
04:06PM 42.5880 -86.5800 255° West 347 399 16,600 -1,740 Descending FlightAware
04:06PM 42.5720 -86.6660 256° West 342 394 15,500 -1,680 Descending FlightAware
04:07PM 42.5540 -86.7470 253° West 344 396 14,300 -1,800 Descending FlightAware
04:08PM 42.5310 -86.8320 250° West 336 387 13,100 -1,800 Descending FlightAware
04:08PM 42.5070 -86.9240 251° West 343 395 11,800 -1,680 Descending FlightAware
04:09PM 42.4860 -87.0010 250° West 348 400 10,800 -1,140 Descending FlightAware
04:10PM 42.4600 -87.0950 249° West 348 400 10,200 -480 Descending FlightAware
04:10PM 42.4370 -87.1780 249° West 346 398 10,200  Level FlightAware
04:11PM 42.4170 -87.2510 250° West 303 349 10,200 -360 Level FlightAware
04:11PM 42.4090 -87.2800 250° West 294 338 9,900 -1,200 Descending FlightAware
04:12PM 42.3950 -87.3320 250° West 285 328 9,300 -1,200 Descending FlightAware
04:12PM 42.3840 -87.3720 250° West 283 326 8,800 -1,320 Descending FlightAware
04:13PM 42.3700 -87.4210 249° West 281 323 8,100 -1,440 Descending FlightAware
04:13PM 42.3570 -87.4680 249° West 277 319 7,400 -1,440 Descending FlightAware
04:14PM 42.3450 -87.5100 249° West 275 316 6,800 -1,380 Descending FlightAware
04:14PM 42.3370 -87.5290 240° Southwest 283 326 6,500 -1,200 Descending FlightAware
04:14PM 42.3170 -87.5480 215° Southwest 291 335 6,200 -600 Descending FlightAware
04:14PM 42.2980 -87.5520 189° South 298 343 6,200  Level FlightAware
04:15PM 42.2620 -87.5470 174° South 297 342 6,200  Level FlightAware
04:15PM 42.2430 -87.5440 173° South 295 339 6,200  Level FlightAware
04:16PM 42.2090 -87.5390 174° South 293 337 6,200  Level FlightAware
04:16PM 42.1670 -87.5330 174° South 280 322 6,200 -240 Level FlightAware
04:17PM 42.1310 -87.5270 173° South 259 298 6,000 -780 Descending FlightAware
04:17PM 42.1020 -87.5220 173° South 253 291 5,500 -1,080 Descending FlightAware
04:17PM 42.0810 -87.5180 172° South 247 284 5,200 -1,020 Descending FlightAware
04:18PM 42.0590 -87.5300 202° Southwest 4,800 -1,080 Descending FlightAware
04:18PM 42.0520 -87.5400 227° Southwest 218 251 4,600 -480 Descending FlightAware
04:18PM 42.0330 -87.5740 233° Southwest 214 246 4,500 -240 Descending FlightAware
04:19PM 42.0150 -87.6060 233° Southwest 216 249 4,400 -240 Descending FlightAware
04:19PM 42.0040 -87.6370 244° Southwest 212 244 4,300 -480 Descending FlightAware
04:20PM 42.0020 -87.6770 266° West 211 243 4,000 -780 Descending FlightAware
04:20PM 42.0020 -87.7070 270° West 210 242 3,600 -1,200 Descending FlightAware
04:21PM 42.0030 -87.7460 272° West 196 226 2,900 -1,080 Descending FlightAware
04:21PM 42.0030 -87.7670 270° West 185 213 2,700 -900 Descending FlightAware
04:22PM 42.0030 -87.8080 270° West 176 203 2,100 -1,020 Descending FlightAware
04:22PM 42.0030 -87.8290 270° West 153 176 1,800 -780 Descending FlightAware
04:23PM 42.0030 -87.8600 270° West 147 169 1,400 -780 Descending FlightAware
04:23PM 42.0030 -87.8870 270° West 151 174 1,000 -840 Descending FlightAware